createdAt,value
2022-08-03T00:01:45.476Z,3.10
2022-08-03T00:04:12.524Z,3.03
2022-08-03T00:06:39.407Z,3.60
2022-08-03T00:09:07.242Z,3.58
2022-08-03T00:11:34.533Z,2.78
2022-08-03T00:14:01.579Z,3.20
2022-08-03T00:16:28.589Z,3.45
2022-08-03T00:18:55.370Z,3.67
2022-08-03T00:21:22.182Z,3.80
2022-08-03T00:23:51.871Z,3.63
2022-08-03T00:26:20.470Z,3.85
2022-08-03T00:28:47.559Z,3.30
2022-08-03T00:31:14.666Z,4.15
2022-08-03T00:33:58.275Z,3.28
2022-08-03T00:36:27.160Z,3.45
2022-08-03T00:38:54.001Z,4.03
2022-08-03T00:41:20.732Z,3.65
2022-08-03T00:43:47.882Z,3.33
2022-08-03T00:46:19.206Z,3.55
2022-08-03T00:48:51.757Z,3.13
2022-08-03T00:51:20.016Z,4.18
2022-08-03T00:53:46.851Z,3.72
2022-08-03T00:56:15.321Z,3.47
2022-08-03T00:58:44.646Z,4.35
2022-08-03T01:01:12.474Z,3.92
2022-08-03T01:03:39.775Z,3.67
2022-08-03T01:06:18.547Z,4.60
2022-08-03T01:09:02.927Z,4.25
2022-08-03T01:12:01.259Z,3.75
2022-08-03T01:14:38.439Z,3.58
2022-08-03T01:17:14.023Z,3.40
2022-08-03T01:20:02.134Z,3.33
2022-08-03T01:23:03.356Z,3.92
2022-08-03T01:25:54.450Z,3.22
2022-08-03T01:28:27.414Z,3.50
2022-08-03T01:30:59.152Z,3.20
2022-08-03T01:33:37.208Z,3.65
2022-08-03T01:36:07.913Z,2.50
2022-08-03T01:38:38.650Z,3.35
2022-08-03T01:41:11.033Z,3.55
2022-08-03T01:43:58.914Z,3.40
2022-08-03T01:46:30.104Z,3.35
2022-08-03T01:48:58.781Z,3.17
2022-08-03T01:51:58.662Z,4.25
2022-08-03T01:54:13.757Z,3.28
2022-08-03T01:56:42.947Z,3.58
2022-08-03T01:59:11.803Z,2.85
2022-08-03T02:02:27.920Z,3.00
2022-08-03T02:04:28.301Z,2.70
2022-08-03T02:07:01.077Z,3.53
2022-08-03T02:09:31.132Z,3.75
2022-08-03T02:11:58.860Z,3.42
2022-08-03T02:14:27.372Z,3.45
2022-08-03T02:16:57.391Z,3.78
2022-08-03T02:19:26.703Z,3.38
2022-08-03T02:21:57.234Z,3.53
2022-08-03T02:26:56.676Z,3.60
2022-08-03T02:29:39.800Z,3.95
2022-08-03T02:32:12.611Z,3.90
2022-08-03T02:34:42.391Z,4.75
2022-08-03T02:37:11.852Z,3.45
2022-08-03T02:39:40.760Z,3.70
2022-08-03T02:42:12.881Z,4.15
2022-08-03T02:44:43.809Z,4.15
2022-08-03T02:47:13.473Z,3.83
2022-08-03T02:49:50.650Z,3.63
2022-08-03T02:52:21.667Z,3.75
2022-08-03T02:54:51.265Z,4.57
2022-08-03T02:57:20.098Z,3.72
2022-08-03T02:59:47.585Z,3.78
2022-08-03T03:02:17.082Z,4.45
2022-08-03T03:04:55.025Z,3.13
2022-08-03T03:07:34.667Z,3.33
2022-08-03T03:10:20.651Z,3.40
2022-08-03T03:12:49.366Z,2.75
2022-08-03T03:15:16.205Z,3.03
2022-08-03T03:17:44.288Z,2.92
2022-08-03T03:20:12.189Z,2.80
2022-08-03T03:22:40.542Z,3.15
2022-08-03T03:25:12.215Z,3.60
2022-08-03T03:27:40.092Z,3.22
2022-08-03T03:30:07.643Z,2.72
2022-08-03T03:32:36.830Z,3.20
2022-08-03T03:35:05.653Z,3.47
2022-08-03T03:37:32.821Z,3.65
2022-08-03T03:39:59.613Z,3.30
2022-08-03T03:42:26.877Z,3.70
2022-08-03T03:44:53.832Z,6.75
2022-08-03T03:47:32.334Z,4.68
2022-08-03T03:49:59.730Z,4.10
2022-08-03T03:52:26.572Z,3.67
2022-08-03T03:54:57.495Z,3.00
2022-08-03T03:57:27.694Z,3.67
2022-08-03T03:59:56.018Z,3.58
2022-08-03T04:02:23.362Z,4.00
2022-08-03T04:05:08.988Z,4.55
2022-08-03T04:08:14.591Z,4.25
2022-08-03T04:11:01.326Z,4.25
2022-08-03T04:13:37.191Z,4.72
2022-08-03T04:16:05.259Z,4.38
2022-08-03T04:18:35.440Z,4.03
2022-08-03T04:21:05.473Z,4.40
2022-08-03T04:23:35.889Z,4.03
2022-08-03T04:26:05.833Z,4.10
2022-08-03T04:28:33.467Z,4.22
2022-08-03T04:31:02.547Z,4.50
2022-08-03T04:33:32.606Z,4.32
2022-08-03T04:36:03.503Z,4.93
2022-08-03T04:38:36.547Z,3.65
2022-08-03T04:41:03.907Z,3.40
2022-08-03T04:43:33.593Z,3.28
2022-08-03T04:46:01.795Z,3.00
2022-08-03T04:48:29.233Z,3.15
2022-08-03T04:50:56.637Z,4.20
2022-08-03T04:53:23.699Z,2.85
2022-08-03T04:55:50.714Z,3.42
2022-08-03T04:58:17.472Z,3.08
2022-08-03T05:00:45.652Z,3.92
2022-08-03T05:03:20.395Z,4.90
2022-08-03T05:06:01.909Z,4.53
2022-08-03T05:08:46.203Z,5.40
2022-08-03T05:11:15.639Z,5.28
2022-08-03T05:13:43.160Z,4.47
2022-08-03T05:16:10.155Z,5.68
2022-08-03T05:18:37.118Z,4.75
2022-08-03T05:21:05.148Z,4.15
2022-08-03T05:23:32.061Z,3.92
2022-08-03T05:25:58.920Z,3.25
2022-08-03T05:28:25.731Z,3.47
2022-08-03T05:30:52.507Z,3.40
2022-08-03T05:33:19.426Z,3.90
2022-08-03T05:35:57.955Z,3.67
2022-08-03T05:38:33.971Z,3.42
2022-08-03T05:41:22.327Z,2.88
2022-08-03T05:43:54.596Z,2.80
2022-08-03T05:46:23.209Z,2.85
2022-08-03T05:48:50.413Z,2.70
2022-08-03T05:51:17.369Z,3.22
2022-08-03T05:53:44.474Z,3.03
2022-08-03T05:56:13.616Z,3.10
2022-08-03T05:58:44.719Z,2.58
2022-08-03T06:01:12.042Z,2.80
2022-08-03T06:03:38.879Z,2.80
2022-08-03T06:06:05.768Z,3.28
2022-08-03T06:08:32.530Z,2.78
2022-08-03T06:10:59.492Z,2.85
2022-08-03T06:13:26.545Z,3.05
2022-08-03T06:15:53.333Z,2.80
2022-08-03T06:18:20.308Z,2.80
2022-08-03T06:20:49.304Z,2.67
2022-08-03T06:23:17.825Z,2.72
2022-08-03T06:25:46.379Z,3.10
2022-08-03T06:28:51.610Z,3.42
2022-08-03T06:31:06.547Z,2.92
2022-08-03T06:34:31.161Z,3.15
2022-08-03T06:36:20.684Z,2.95
2022-08-03T06:38:47.914Z,2.65
2022-08-03T06:41:14.951Z,2.83
2022-08-03T06:44:03.999Z,2.47
2022-08-03T06:46:29.340Z,2.83
2022-08-03T06:48:56.721Z,2.67
2022-08-03T06:52:04.385Z,3.28
2022-08-03T06:54:11.009Z,2.90
2022-08-03T06:56:38.049Z,2.97
2022-08-03T06:59:04.898Z,2.42
2022-08-03T07:01:31.823Z,2.63
2022-08-03T07:03:58.849Z,3.38
2022-08-03T07:06:25.653Z,2.65
2022-08-03T07:08:56.493Z,2.42
2022-08-03T07:11:26.430Z,2.28
2022-08-03T07:13:53.188Z,2.20
2022-08-03T07:16:20.244Z,2.63
2022-08-03T07:18:48.634Z,2.65
2022-08-03T07:21:16.962Z,2.55
2022-08-03T07:23:43.792Z,2.60
2022-08-03T07:26:10.694Z,2.13
2022-08-03T07:28:37.761Z,2.58
2022-08-03T07:31:04.576Z,2.22
2022-08-03T07:33:31.424Z,2.38
2022-08-03T07:35:58.430Z,3.10
2022-08-03T07:38:25.249Z,2.35
2022-08-03T07:40:52.047Z,2.35
2022-08-03T07:43:19.010Z,2.20
2022-08-03T07:45:45.794Z,2.50
2022-08-03T07:48:12.868Z,3.17
2022-08-03T07:50:39.859Z,2.70
2022-08-03T07:53:06.614Z,2.70
2022-08-03T07:55:33.685Z,2.90
2022-08-03T07:58:09.999Z,2.70
2022-08-03T08:00:36.986Z,2.58
2022-08-03T08:03:04.935Z,2.58
2022-08-03T08:05:32.628Z,2.75
2022-08-03T08:08:00.281Z,2.78
2022-08-03T08:10:28.085Z,2.30
2022-08-03T08:12:55.643Z,2.60
2022-08-03T08:15:22.976Z,2.30
2022-08-03T08:17:55.436Z,2.70
2022-08-03T08:20:31.620Z,2.30
2022-08-03T08:23:19.281Z,1.85
2022-08-03T08:25:52.705Z,2.00
2022-08-03T08:28:32.666Z,2.28
2022-08-03T08:31:01.575Z,3.22
2022-08-03T08:33:42.086Z,2.00
2022-08-03T08:36:15.698Z,2.38
2022-08-03T08:38:45.124Z,2.25
2022-08-03T08:41:14.247Z,2.03
2022-08-03T08:43:42.352Z,1.80
2022-08-03T08:46:23.452Z,2.28
2022-08-03T08:48:52.777Z,1.88
2022-08-03T08:51:21.340Z,1.52
2022-08-03T08:53:51.664Z,2.00
2022-08-03T08:56:20.113Z,2.10
2022-08-03T08:58:54.364Z,1.63
2022-08-03T09:01:22.053Z,1.63
2022-08-03T09:03:49.067Z,2.08
2022-08-03T09:06:16.981Z,1.65
2022-08-03T09:08:43.834Z,1.45
2022-08-03T09:11:11.949Z,1.65
2022-08-03T09:13:39.605Z,2.22
2022-08-03T09:16:21.551Z,1.80
2022-08-03T09:18:51.230Z,1.92
2022-08-03T09:21:34.275Z,1.58
2022-08-03T09:24:05.297Z,1.60
2022-08-03T09:26:37.148Z,1.63
2022-08-03T09:29:16.775Z,1.42
2022-08-03T09:31:45.680Z,1.52
2022-08-03T09:34:17.689Z,1.80
2022-08-03T09:36:51.583Z,1.77
2022-08-03T09:39:40.290Z,1.60
2022-08-03T09:42:11.505Z,1.88
2022-08-03T09:44:46.420Z,1.70
2022-08-03T09:47:15.334Z,2.03
2022-08-03T09:49:43.496Z,1.27
2022-08-03T09:52:38.943Z,1.88
2022-08-03T09:56:05.105Z,2.10
2022-08-03T09:58:07.279Z,2.00
2022-08-03T10:00:52.402Z,1.85
2022-08-03T10:03:19.290Z,1.90
2022-08-03T10:05:46.244Z,1.80
2022-08-03T10:08:17.596Z,1.63
2022-08-03T10:10:46.392Z,1.90
2022-08-03T10:13:18.562Z,1.55
2022-08-03T10:16:21.915Z,1.70
2022-08-03T10:18:33.463Z,1.50
2022-08-03T10:21:07.955Z,1.75
2022-08-03T10:23:35.146Z,1.67
2022-08-03T10:26:07.610Z,1.90
2022-08-03T10:28:45.556Z,2.55
2022-08-03T10:31:14.373Z,1.95
2022-08-03T10:33:51.591Z,1.80
2022-08-03T10:36:24.163Z,2.10
2022-08-03T10:38:53.185Z,1.73
2022-08-03T10:41:22.064Z,1.80
2022-08-03T10:43:56.740Z,1.70
2022-08-03T10:46:24.001Z,1.75
2022-08-03T10:48:52.825Z,1.75
2022-08-03T10:51:20.790Z,2.15
2022-08-03T10:53:54.987Z,2.22
2022-08-03T10:56:54.358Z,2.08
2022-08-03T10:59:46.209Z,1.80
2022-08-03T11:02:14.846Z,2.10
2022-08-03T11:04:42.798Z,1.80
2022-08-03T11:07:24.584Z,1.88
2022-08-03T11:09:56.677Z,2.28
2022-08-03T11:12:31.170Z,2.17
2022-08-03T11:15:05.219Z,1.42
2022-08-03T11:17:33.821Z,1.30
2022-08-03T11:20:14.144Z,1.50
2022-08-03T11:22:51.539Z,1.40
2022-08-03T11:25:53.630Z,1.40
2022-08-03T11:28:28.717Z,1.75
2022-08-03T11:30:55.690Z,1.33
2022-08-03T11:33:31.983Z,1.52
2022-08-03T11:36:01.219Z,1.55
2022-08-03T11:38:28.068Z,1.10
2022-08-03T11:40:55.084Z,1.52
2022-08-03T11:43:31.803Z,1.50
2022-08-03T11:46:03.131Z,1.27
2022-08-03T11:48:35.950Z,1.63
2022-08-03T11:51:04.808Z,1.38
2022-08-03T11:53:31.926Z,1.88
2022-08-03T11:56:00.300Z,1.45
2022-08-03T11:59:10.607Z,1.38
2022-08-03T12:01:21.269Z,1.40
2022-08-03T12:03:50.315Z,1.65
2022-08-03T12:06:19.495Z,1.48
2022-08-03T12:08:46.677Z,1.10
2022-08-03T12:11:16.018Z,1.65
2022-08-03T12:14:35.673Z,1.58
2022-08-03T12:16:34.635Z,1.40
2022-08-03T12:19:05.057Z,1.73
2022-08-03T12:21:32.540Z,1.55
2022-08-03T12:24:01.246Z,1.80
2022-08-03T12:26:30.013Z,1.90
2022-08-03T12:28:58.484Z,1.50
2022-08-03T12:31:25.881Z,2.08
2022-08-03T12:34:03.402Z,1.73
2022-08-03T12:36:33.037Z,1.58
2022-08-03T12:39:08.310Z,1.77
2022-08-03T12:41:39.893Z,1.90
2022-08-03T12:44:08.784Z,2.35
2022-08-03T12:46:45.386Z,1.70
2022-08-03T12:49:19.530Z,1.92
2022-08-03T12:51:46.328Z,1.88
2022-08-03T12:54:18.957Z,1.80
2022-08-03T12:57:05.082Z,2.35
2022-08-03T12:59:40.847Z,2.05
2022-08-03T13:02:28.046Z,1.75
2022-08-03T13:04:55.356Z,2.30
2022-08-03T13:07:23.214Z,2.17
2022-08-03T13:09:55.916Z,2.20
2022-08-03T13:12:24.946Z,2.40
2022-08-03T13:14:55.031Z,2.10
2022-08-03T13:17:22.316Z,2.25
2022-08-03T13:19:50.304Z,1.90
2022-08-03T13:22:18.489Z,1.95
2022-08-03T13:24:46.890Z,2.03
2022-08-03T13:28:01.990Z,2.10
2022-08-03T13:30:01.508Z,2.35
2022-08-03T13:32:28.390Z,1.98
2022-08-03T13:34:55.269Z,2.10
2022-08-03T13:37:22.567Z,2.58
2022-08-03T13:40:00.166Z,2.75
2022-08-03T13:42:32.399Z,2.00
2022-08-03T13:45:00.775Z,2.22
2022-08-03T13:47:28.141Z,2.53
2022-08-03T13:50:01.629Z,2.47
2022-08-03T13:52:31.173Z,2.42
2022-08-03T13:54:58.774Z,2.70
2022-08-03T13:58:11.638Z,2.42
2022-08-03T14:00:13.105Z,2.25
2022-08-03T14:02:55.328Z,2.30
2022-08-03T14:05:26.202Z,2.30
2022-08-03T14:07:53.019Z,2.17
2022-08-03T14:10:25.185Z,2.30
2022-08-03T14:12:52.231Z,2.17
2022-08-03T14:15:19.109Z,2.40
2022-08-03T14:17:50.205Z,2.50
2022-08-03T14:20:36.225Z,2.78
2022-08-03T14:23:04.050Z,2.30
2022-08-03T14:25:49.865Z,2.50
2022-08-03T14:28:19.074Z,2.97
2022-08-03T14:30:46.565Z,2.70
2022-08-03T14:33:13.540Z,3.05
2022-08-03T14:35:40.850Z,2.60
2022-08-03T14:38:07.662Z,2.63
2022-08-03T14:40:34.653Z,2.28
2022-08-03T14:43:02.448Z,2.40
2022-08-03T14:45:29.332Z,4.07
2022-08-03T14:50:33.249Z,3.50
2022-08-03T14:50:46.998Z,2.80
2022-08-03T14:53:17.743Z,2.90
2022-08-03T14:55:49.596Z,2.17
2022-08-03T14:58:21.990Z,2.38
2022-08-03T15:00:50.753Z,3.47
2022-08-03T15:03:20.505Z,4.95
2022-08-03T15:05:47.784Z,4.60
2022-08-03T15:08:14.701Z,3.78
2022-08-03T15:10:44.508Z,3.38
2022-08-03T15:13:15.578Z,3.20
2022-08-03T15:15:42.882Z,3.45
2022-08-03T15:18:09.865Z,3.38
2022-08-03T15:20:44.299Z,3.15
2022-08-03T15:23:13.319Z,2.90
2022-08-03T15:30:10.077Z,6.80
2022-08-03T15:32:37.236Z,5.53
2022-08-03T15:35:04.457Z,5.05
2022-08-03T15:37:31.188Z,4.10
2022-08-03T15:39:59.009Z,11.60
2022-08-03T15:42:31.210Z,15.48
2022-08-03T15:44:58.824Z,5.65
2022-08-03T15:47:25.913Z,9.88
2022-08-03T15:49:52.784Z,9.02
2022-08-03T15:52:19.531Z,4.78
2022-08-03T15:54:46.261Z,3.40
2022-08-03T15:57:13.164Z,2.75
2022-08-03T15:59:39.935Z,3.22
2022-08-03T16:02:06.754Z,3.03
2022-08-03T16:04:33.757Z,1.88
2022-08-03T16:07:00.695Z,3.53
2022-08-03T16:09:42.217Z,3.00
2022-08-03T16:12:11.750Z,1.95
2022-08-03T16:14:51.791Z,2.00
2022-08-03T16:17:19.212Z,2.15
2022-08-03T16:19:46.212Z,2.38
2022-08-03T16:22:14.327Z,2.30
2022-08-03T16:24:41.509Z,2.17
2022-08-03T16:27:17.652Z,2.75
2022-08-03T16:29:55.248Z,2.70
2022-08-03T16:32:22.051Z,2.78
2022-08-03T16:34:48.995Z,3.03
2022-08-03T16:37:37.617Z,2.75
2022-08-03T16:40:03.842Z,2.58
2022-08-03T16:42:30.744Z,2.40
2022-08-03T16:44:57.632Z,2.80
2022-08-03T16:47:24.538Z,2.55
2022-08-03T16:49:54.161Z,3.15
2022-08-03T16:52:23.905Z,2.63
2022-08-03T16:54:52.963Z,2.65
2022-08-03T16:57:59.960Z,4.00
2022-08-03T17:00:33.182Z,3.80
2022-08-03T17:03:04.318Z,2.97
2022-08-03T17:05:43.911Z,3.50
2022-08-03T17:08:14.502Z,3.35
2022-08-03T17:10:45.562Z,4.25
2022-08-03T17:13:21.929Z,3.92
2022-08-03T17:15:58.638Z,3.00
2022-08-03T17:18:33.173Z,4.20
2022-08-03T17:21:03.481Z,3.10
2022-08-03T17:23:42.310Z,3.20
2022-08-03T17:26:21.200Z,2.95
2022-08-03T17:28:57.327Z,3.15
2022-08-03T17:31:31.142Z,2.78
2022-08-03T17:34:01.995Z,3.17
2022-08-03T17:37:02.209Z,2.58
2022-08-03T17:39:27.050Z,3.40
2022-08-03T17:42:05.387Z,3.15
2022-08-03T17:44:53.883Z,3.40
2022-08-03T17:47:21.561Z,5.80
2022-08-03T17:49:48.561Z,5.80
2022-08-03T17:52:30.840Z,6.00
2022-08-03T17:55:56.779Z,5.53
2022-08-03T17:58:13.909Z,5.60
2022-08-03T18:01:04.573Z,4.75
2022-08-03T18:03:59.766Z,4.55
2022-08-03T18:06:31.215Z,3.67
2022-08-03T18:11:51.252Z,4.00
2022-08-03T18:14:32.077Z,4.28
2022-08-03T18:17:10.257Z,3.83
2022-08-03T18:20:03.530Z,4.40
2022-08-03T18:22:28.284Z,4.28
2022-08-03T18:24:59.118Z,3.67
2022-08-03T18:27:42.437Z,3.45
2022-08-03T18:30:13.713Z,3.80
2022-08-03T18:32:43.709Z,4.70
2022-08-03T18:35:53.717Z,4.18
2022-08-03T18:38:18.808Z,4.78
2022-08-03T18:40:48.744Z,7.30
2022-08-03T18:43:17.587Z,7.28
2022-08-03T18:45:57.462Z,11.18
2022-08-03T18:48:35.810Z,9.10
2022-08-03T18:51:10.787Z,6.32
2022-08-03T18:54:02.952Z,6.10
2022-08-03T18:56:38.217Z,5.22
2022-08-03T18:59:09.905Z,4.22
2022-08-03T19:01:58.349Z,4.38
2022-08-03T19:04:55.251Z,4.45
2022-08-03T19:07:27.552Z,4.45
2022-08-03T19:10:10.824Z,4.43
2022-08-03T19:12:53.264Z,5.05
2022-08-03T19:15:36.478Z,5.10
2022-08-03T19:18:11.243Z,4.93
2022-08-03T19:20:38.439Z,4.57
2022-08-03T19:23:06.580Z,4.95
2022-08-03T19:25:38.727Z,4.72
2022-08-03T19:28:07.679Z,4.70
2022-08-03T19:30:38.965Z,4.82
2022-08-03T19:33:12.432Z,4.55
2022-08-03T19:35:51.595Z,4.00
2022-08-03T19:38:28.594Z,4.55
2022-08-03T19:41:00.028Z,4.15
2022-08-03T19:43:49.299Z,4.55
2022-08-03T19:46:22.624Z,4.00
2022-08-03T19:49:03.051Z,4.55
2022-08-03T19:52:02.159Z,4.50
2022-08-03T19:54:29.957Z,4.38
2022-08-03T19:57:01.857Z,5.18
2022-08-03T19:59:32.832Z,4.75
2022-08-03T20:01:59.608Z,4.32
2022-08-03T20:04:26.581Z,5.28
2022-08-03T20:06:57.118Z,4.88
2022-08-03T20:09:24.501Z,4.72
2022-08-03T20:12:04.021Z,5.37
2022-08-03T20:14:32.100Z,5.07
2022-08-03T20:16:59.154Z,4.72
2022-08-03T20:19:32.709Z,5.13
2022-08-03T20:22:02.374Z,5.20
2022-08-03T20:24:34.471Z,4.60
2022-08-03T20:27:07.846Z,4.30
2022-08-03T20:30:04.955Z,4.95
2022-08-03T20:32:25.560Z,5.05
2022-08-03T20:34:52.973Z,4.88
2022-08-03T20:37:20.326Z,5.53
2022-08-03T20:39:49.787Z,5.15
2022-08-03T20:42:21.178Z,5.65
2022-08-03T20:45:04.374Z,4.78
2022-08-03T20:47:35.877Z,4.55
2022-08-03T20:50:04.185Z,5.32
2022-08-03T20:52:43.988Z,6.60
2022-08-03T20:55:18.739Z,5.78
2022-08-03T20:58:05.501Z,5.30
2022-08-03T21:00:32.567Z,5.00
2022-08-03T21:02:59.371Z,4.88
2022-08-03T21:05:47.932Z,5.45
2022-08-03T21:08:16.038Z,5.55
2022-08-03T21:10:45.607Z,5.38
2022-08-03T21:12:56.883Z,4.30
2022-08-03T21:13:32.382Z,4.95
2022-08-03T21:16:11.414Z,5.38
2022-08-03T21:18:52.860Z,5.20
2022-08-03T21:21:23.217Z,5.38
2022-08-03T21:23:54.902Z,5.22
2022-08-03T21:26:24.348Z,5.53
2022-08-03T21:28:53.487Z,5.72
2022-08-03T21:31:25.390Z,6.18
2022-08-03T21:34:01.984Z,4.90
2022-08-03T21:36:33.447Z,5.28
2022-08-03T21:39:01.213Z,5.00
2022-08-03T21:41:30.674Z,4.90
2022-08-03T21:43:58.446Z,5.13
2022-08-03T21:46:29.602Z,5.30
2022-08-03T21:49:52.033Z,5.68
2022-08-03T21:51:50.330Z,5.90
2022-08-03T21:54:20.448Z,5.43
2022-08-03T21:56:50.162Z,5.60
2022-08-03T21:59:19.388Z,7.68
2022-08-03T22:01:49.179Z,8.20
2022-08-03T22:04:50.997Z,7.82
2022-08-03T22:07:10.000Z,7.78
2022-08-03T22:09:37.336Z,9.85
2022-08-03T22:12:04.655Z,9.25
2022-08-03T22:14:34.619Z,8.30
2022-08-03T22:17:03.387Z,8.05
2022-08-03T22:19:34.170Z,7.97
2022-08-03T22:22:06.169Z,7.40
2022-08-03T22:24:36.717Z,7.13
2022-08-03T22:27:23.071Z,6.18
2022-08-03T22:29:51.799Z,6.25
2022-08-03T22:32:19.137Z,6.70
2022-08-03T22:34:48.774Z,6.53
2022-08-03T22:37:21.156Z,6.97
2022-08-03T22:39:49.839Z,6.60
2022-08-03T22:42:19.344Z,6.75
2022-08-03T22:44:51.078Z,5.50
2022-08-03T22:47:22.564Z,6.82
2022-08-03T22:50:32.429Z,6.32
2022-08-03T22:52:40.823Z,6.85
2022-08-03T22:55:11.447Z,6.43
2022-08-03T22:57:45.730Z,6.03
2022-08-03T23:00:22.544Z,6.38
2022-08-03T23:02:52.031Z,5.57
2022-08-03T23:06:01.020Z,5.93
2022-08-03T23:08:20.800Z,6.25
2022-08-03T23:10:48.801Z,6.00
2022-08-03T23:13:17.917Z,5.80
2022-08-03T23:16:06.395Z,6.40
2022-08-03T23:18:39.681Z,5.90
2022-08-03T23:21:11.009Z,5.43
2022-08-03T23:23:44.490Z,5.22
2022-08-03T23:26:15.579Z,6.07
2022-08-03T23:28:46.886Z,5.13
2022-08-03T23:31:15.186Z,5.40
2022-08-03T23:33:45.692Z,6.07
2022-08-03T23:36:30.954Z,6.35
2022-08-03T23:39:02.306Z,6.60
2022-08-03T23:41:30.666Z,6.40
2022-08-03T23:44:00.747Z,6.50
2022-08-03T23:46:30.545Z,7.30
2022-08-03T23:48:58.836Z,6.72
2022-08-03T23:51:41.242Z,7.05
2022-08-03T23:54:39.057Z,6.47
2022-08-03T23:57:22.577Z,6.28
